Time;durP1;ratioP1;P1;durP2;ratioP2;P2;SDS_P1;SDS_P2;PMS_P1;PMS_P2;Temp;Humidity;BMP_temperature;BMP_pressure;BME280_temperature;BME280_humidity;BME280_pressure;Samples;Min_cycle;Max_cycle;Signal;HPM_P1;HPM_P2
2023/04/27 00:00:09;;;;;;;7.90;4.20;;;;;;;9.28;64.66;94547.94;5075530;28;20454;-83
2023/04/27 00:02:37;;;;;;;7.90;5.23;;;;;;;9.29;65.53;94552.22;5075726;28;20538;-83
2023/04/27 00:05:04;;;;;;;5.53;3.63;;;;;;;9.34;64.38;94553.63;5075096;28;20940;-83
2023/04/27 00:07:31;;;;;;;7.67;4.83;;;;;;;9.29;64.54;94546.97;5075144;28;20444;-84
2023/04/27 00:09:59;;;;;;;10.37;4.33;;;;;;;9.32;64.75;94557.19;5075811;28;20440;-83
2023/04/27 00:12:26;;;;;;;7.83;4.00;;;;;;;9.38;65.39;94561.06;5075090;28;20486;-83
2023/04/27 00:14:52;;;;;;;11.20;6.37;;;;;;;9.34;64.29;94558.84;5075114;28;20452;-82
2023/04/27 00:17:19;;;;;;;6.93;3.07;;;;;;;9.22;64.18;94555.47;5075747;28;20457;-83
2023/04/27 00:19:47;;;;;;;6.40;4.03;;;;;;;9.21;66.29;94559.03;5075469;28;20454;-83
2023/04/27 00:22:14;;;;;;;6.33;4.20;;;;;;;9.23;65.19;94555.34;5075133;28;20459;-83
2023/04/27 00:24:41;;;;;;;5.70;4.13;;;;;;;9.21;64.92;94559.03;5039778;28;21001;-83
2023/04/27 00:27:12;;;;;;;4.37;3.87;;;;;;;9.27;64.92;94564.59;5074857;28;20534;-82
2023/04/27 00:29:41;;;;;;;6.10;3.80;;;;;;;9.28;65.38;94568.06;5074888;28;20432;-82
2023/04/27 00:32:08;;;;;;;5.63;4.33;;;;;;;9.27;65.25;94564.59;5074688;28;20791;-83
2023/04/27 00:34:35;;;;;;;9.73;3.87;;;;;;;9.23;64.30;94563.19;5075013;28;20544;-83
2023/04/27 00:37:02;;;;;;;8.17;4.17;;;;;;;9.18;64.59;94573.22;5075177;28;20484;-83
2023/04/27 00:39:28;;;;;;;7.13;4.20;;;;;;;9.13;63.98;94567.56;5074879;28;20505;-82
2023/04/27 00:41:55;;;;;;;9.60;4.83;;;;;;;9.14;64.52;94573.63;5039368;28;20517;-84
2023/04/27 00:44:24;;;;;;;8.43;4.93;;;;;;;9.05;64.27;94569.16;5075175;28;20816;-83
2023/04/27 00:46:52;;;;;;;6.23;4.20;;;;;;;8.99;64.12;94579.19;5074871;28;20498;-83
2023/04/27 00:49:19;;;;;;;7.70;4.93;;;;;;;8.93;64.25;94577.06;5074861;28;21035;-82
2023/04/27 00:51:46;;;;;;;13.13;3.53;;;;;;;8.97;64.80;94575.03;5074485;28;20455;-83
2023/04/27 00:54:13;;;;;;;7.40;3.70;;;;;;;8.99;65.82;94570.50;5075415;28;20851;-83
2023/04/27 00:56:41;;;;;;;5.63;3.47;;;;;;;8.99;64.68;94575.75;5039388;28;20468;-83
2023/04/27 00:59:08;;;;;;;12.67;6.10;;;;;;;9.01;64.03;94576.44;5074693;28;20495;-83
2023/04/27 01:01:36;;;;;;;15.80;4.93;;;;;;;8.97;64.54;94578.50;5074813;28;20457;-83
2023/04/27 01:04:03;;;;;;;4.63;3.47;;;;;;;8.85;64.79;94583.91;5074280;28;20486;-82
2023/04/27 01:06:30;;;;;;;9.97;3.63;;;;;;;8.80;65.38;94580.84;5055619;28;20445;-82
2023/04/27 01:08:57;;;;;;;8.00;4.40;;;;;;;8.77;65.61;94578.47;5074135;28;20506;-83
2023/04/27 01:11:24;;;;;;;3.67;3.37;;;;;;;8.71;64.84;94581.59;5074091;28;21010;-83
2023/04/27 01:13:51;;;;;;;13.53;3.73;;;;;;;8.60;65.67;94585.09;5073951;28;20454;-82
2023/04/27 01:16:18;;;;;;;9.80;4.60;;;;;;;8.50;65.79;94587.63;5074338;28;20504;-83
2023/04/27 01:18:47;;;;;;;8.23;5.10;;;;;;;8.52;67.20;94595.34;5073694;28;20462;-82
2023/04/27 01:21:14;;;;;;;4.80;3.47;;;;;;;8.54;66.58;94582.97;5073766;28;20450;-83
2023/04/27 01:23:42;;;;;;;9.47;4.37;;;;;;;8.58;67.16;94584.38;5073888;28;20937;-83
2023/04/27 01:26:10;;;;;;;6.80;4.20;;;;;;;8.61;66.81;94584.97;5073765;28;20447;-83
2023/04/27 01:28:37;;;;;;;4.40;3.33;;;;;;;8.51;64.87;94591.91;5055626;28;20934;-83
2023/04/27 01:31:04;;;;;;;5.77;3.10;;;;;;;8.42;65.69;94587.44;5074257;28;20807;-82
2023/04/27 01:33:31;;;;;;;4.33;3.63;;;;;;;8.34;66.06;94592.44;5073565;28;20462;-83
2023/04/27 01:35:57;;;;;;;7.10;3.43;;;;;;;8.30;66.14;94594.44;5073850;28;20443;-83
2023/04/27 01:38:24;;;;;;;7.07;3.93;;;;;;;8.26;66.56;94592.19;5073887;28;20446;-83
2023/04/27 01:40:54;;;;;;;3.80;3.17;;;;;;;8.15;66.90;94594.84;5073534;28;20941;-84
2023/04/27 01:43:20;;;;;;;6.40;3.67;;;;;;;8.23;66.78;94595.06;5073586;28;20449;-83
2023/04/27 01:45:48;;;;;;;9.67;4.00;;;;;;;8.19;66.65;94596.25;5073423;28;20539;-83
2023/04/27 01:48:15;;;;;;;7.37;3.80;;;;;;;8.27;66.25;94601.69;5074238;28;20434;-83
2023/04/27 01:50:42;;;;;;;5.90;4.17;;;;;;;8.35;66.04;94601.94;5073613;28;20928;-83
2023/04/27 01:53:08;;;;;;;4.20;3.80;;;;;;;8.35;66.01;94597.53;5073712;28;20457;-83
2023/04/27 01:55:35;;;;;;;6.70;4.53;;;;;;;8.33;65.82;94599.44;5073665;28;20451;-83
2023/04/27 01:58:03;;;;;;;4.40;3.40;;;;;;;8.32;65.30;94599.53;5073960;28;20454;-83
2023/04/27 02:00:31;;;;;;;6.40;3.87;;;;;;;8.22;65.63;94599.47;5073732;28;20463;-83
2023/04/27 02:02:59;;;;;;;5.80;3.87;;;;;;;8.12;66.04;94606.38;5073572;28;20789;-84
2023/04/27 02:05:26;;;;;;;6.70;3.70;;;;;;;8.10;66.33;94602.22;5073582;28;20496;-83
2023/04/27 02:07:52;;;;;;;10.70;3.80;;;;;;;8.06;66.25;94607.69;5073591;28;20449;-82
2023/04/27 02:10:21;;;;;;;7.30;4.57;;;;;;;8.00;66.85;94604.72;5073608;28;20450;-83
2023/04/27 02:12:48;;;;;;;4.67;3.23;;;;;;;7.99;67.02;94603.91;5073419;28;20865;-83
2023/04/27 02:15:16;;;;;;;4.13;3.30;;;;;;;8.02;66.82;94610.66;5073199;28;20886;-83
2023/04/27 02:17:44;;;;;;;7.73;4.37;;;;;;;8.06;66.50;94614.69;5073597;28;20542;-83
2023/04/27 02:20:11;;;;;;;5.83;3.40;;;;;;;8.14;66.86;94614.09;5073543;28;20457;-83
2023/04/27 02:22:42;;;;;;;7.00;3.60;;;;;;;8.12;65.88;94605.56;5073230;28;20450;-83
2023/04/27 02:25:10;;;;;;;5.50;4.50;;;;;;;8.13;66.15;94615.88;5073172;28;20494;-83
2023/04/27 02:27:37;;;;;;;3.87;3.47;;;;;;;8.08;65.69;94611.00;5072919;28;20468;-83
2023/04/27 02:30:05;;;;;;;6.13;3.50;;;;;;;8.06;65.41;94609.47;5073535;28;20533;-83
2023/04/27 02:32:34;;;;;;;6.47;3.50;;;;;;;8.00;65.75;94602.94;5074318;28;20465;-83
2023/04/27 02:35:04;;;;;;;18.33;4.20;;;;;;;7.89;65.86;94599.53;5075060;28;20476;-83
2023/04/27 02:37:30;;;;;;;3.73;3.37;;;;;;;7.87;66.38;94612.72;5073659;28;20432;-82
2023/04/27 02:40:00;;;;;;;10.93;4.63;;;;;;;7.83;66.75;94613.91;5037803;28;20902;-82
2023/04/27 02:42:27;;;;;;;7.00;3.73;;;;;;;7.91;66.48;94608.91;5073022;28;20449;-82
2023/04/27 02:44:54;;;;;;;8.83;5.67;;;;;;;7.97;65.76;94611.03;5054356;28;20481;-83
2023/04/27 02:47:21;;;;;;;12.90;4.97;;;;;;;8.00;65.83;94613.41;5073440;28;20450;-83
2023/04/27 02:49:49;;;;;;;6.50;3.93;;;;;;;8.12;65.86;94611.59;5073215;28;20454;-83
2023/04/27 02:52:16;;;;;;;6.93;4.00;;;;;;;8.08;64.73;94611.00;5072798;28;20447;-82
2023/04/27 02:54:43;;;;;;;9.83;3.77;;;;;;;8.16;65.90;94622.66;5072998;28;20511;-83
2023/04/27 02:57:09;;;;;;;11.27;4.13;;;;;;;8.09;64.86;94619.66;5073135;28;20450;-83
2023/04/27 02:59:36;;;;;;;11.43;3.93;;;;;;;8.00;65.42;94623.84;5073422;28;20438;-82
2023/04/27 03:02:03;;;;;;;10.93;3.57;;;;;;;7.96;65.81;94626.81;5071628;28;20447;-83
2023/04/27 03:04:30;;;;;;;6.73;3.90;;;;;;;7.97;65.58;94628.47;5072936;28;20493;-82
2023/04/27 03:06:58;;;;;;;3.77;3.40;;;;;;;8.01;66.02;94630.72;5074982;28;20500;-83
2023/04/27 03:09:25;;;;;;;4.93;4.43;;;;;;;7.89;65.74;94623.88;5073208;28;20453;-82
2023/04/27 03:11:52;;;;;;;8.67;3.90;;;;;;;7.86;65.96;94628.50;5078581;28;20445;-82
2023/04/27 03:14:19;;;;;;;6.33;3.80;;;;;;;7.87;65.98;94631.00;5078687;28;20480;-83
2023/04/27 03:16:46;;;;;;;10.73;4.57;;;;;;;7.91;65.46;94629.81;5077035;28;20450;-82
2023/04/27 03:19:12;;;;;;;7.60;3.67;;;;;;;7.95;67.50;94631.22;5041499;28;20449;-83
2023/04/27 03:21:39;;;;;;;4.80;3.67;;;;;;;7.97;65.07;94636.31;5058004;28;20529;-82
2023/04/27 03:24:08;;;;;;;6.30;4.23;;;;;;;7.96;65.74;94637.28;5076763;28;20445;-81
2023/04/27 03:26:34;;;;;;;7.23;3.70;;;;;;;7.89;64.83;94647.38;5076254;28;20510;-82
2023/04/27 03:29:01;;;;;;;8.90;4.57;;;;;;;7.88;65.09;94640.50;5075965;28;20793;-81
2023/04/27 03:31:28;;;;;;;8.30;3.77;;;;;;;7.82;65.26;94640.97;5076545;28;20441;-83
2023/04/27 03:33:55;;;;;;;6.50;3.53;;;;;;;7.75;65.42;94640.59;5076015;28;20477;-82
2023/04/27 03:36:22;;;;;;;8.90;4.17;;;;;;;7.75;66.18;94645.00;5076746;28;20988;-83
2023/04/27 03:38:49;;;;;;;14.90;5.00;;;;;;;7.74;65.96;94648.56;5076495;28;20894;-83
2023/04/27 03:41:17;;;;;;;5.40;3.57;;;;;;;7.64;66.91;94648.44;5076646;28;20498;-82
2023/04/27 03:43:44;;;;;;;6.50;4.17;;;;;;;7.66;65.60;94650.94;5077049;28;20942;-81
2023/04/27 03:46:11;;;;;;;8.73;4.50;;;;;;;7.67;66.07;94660.44;5074868;28;20995;-82
2023/04/27 03:48:38;;;;;;;6.13;4.40;;;;;;;7.74;67.02;94654.63;5074975;28;20880;-82
2023/04/27 03:51:05;;;;;;;4.17;3.40;;;;;;;7.81;65.81;94665.44;5074900;28;20470;-82
2023/04/27 03:53:32;;;;;;;5.07;4.10;;;;;;;7.94;65.75;94670.53;5075881;28;20948;-83
2023/04/27 03:55:59;;;;;;;17.70;5.47;;;;;;;8.15;66.44;94665.41;5057547;28;20450;-84
2023/04/27 03:58:27;;;;;;;5.57;4.57;;;;;;;8.11;64.43;94674.44;5075365;28;20939;-85
2023/04/27 04:00:56;;;;;;;14.47;5.00;;;;;;;8.08;64.66;94672.88;5075821;28;20854;-84
2023/04/27 04:03:22;;;;;;;9.60;5.30;;;;;;;8.12;65.24;94686.56;5076304;28;20465;-83
2023/04/27 04:05:49;;;;;;;6.83;5.10;;;;;;;8.14;65.46;94687.28;5075701;28;20469;-84
2023/04/27 04:08:16;;;;;;;6.50;4.17;;;;;;;8.27;64.37;94677.50;5075498;28;20447;-84
2023/04/27 04:10:42;;;;;;;5.30;4.03;;;;;;;8.37;63.88;94691.53;5075054;28;20454;-83
2023/04/27 04:13:09;;;;;;;4.20;3.80;;;;;;;8.30;64.22;94687.72;5054939;28;20463;-84
2023/04/27 04:15:37;;;;;;;9.67;4.60;;;;;;;8.27;66.41;94690.56;5075587;28;20453;-84
2023/04/27 04:18:04;;;;;;;8.27;5.43;;;;;;;8.22;64.73;94695.34;5075605;28;20937;-84
2023/04/27 04:20:40;;;;;;;6.60;4.40;;;;;;;8.16;64.39;94691.44;5083226;28;20450;-83
2023/04/27 04:23:07;;;;;;;5.90;4.30;;;;;;;8.15;nan;94700.22;5077587;28;20540;-83
2023/04/27 04:25:34;;;;;;;6.03;4.20;;;;;;;8.10;63.31;94704.16;5075414;28;20529;-82
2023/04/27 04:28:00;;;;;;;5.07;4.47;;;;;;;8.18;65.02;94706.97;5075439;28;20446;-83
2023/04/27 04:30:27;;;;;;;11.10;4.23;;;;;;;8.18;65.94;94706.97;5075347;28;20488;-82
2023/04/27 04:32:55;;;;;;;4.43;4.00;;;;;;;8.13;64.09;94711.75;5075342;28;20826;-81
2023/04/27 04:35:22;;;;;;;8.13;3.77;;;;;;;8.16;64.19;94714.13;5074571;28;20489;-82
2023/04/27 04:37:49;;;;;;;7.93;4.73;;;;;;;8.19;64.30;94711.25;5074027;28;20447;-82
2023/04/27 04:40:16;;;;;;;6.60;3.73;;;;;;;8.13;64.55;94715.19;5074610;28;20447;-82
2023/04/27 04:42:42;;;;;;;4.57;4.13;;;;;;;8.20;66.07;94720.75;5075227;28;20449;-82
2023/04/27 04:45:10;;;;;;;5.57;4.53;;;;;;;8.12;63.44;94720.53;5075239;28;20482;-82
2023/04/27 04:47:38;;;;;;;8.80;3.77;;;;;;;8.21;64.80;94725.03;5074998;28;20454;-83
2023/04/27 04:50:08;;;;;;;5.20;4.37;;;;;;;8.31;64.89;94723.34;5075452;28;20534;-83
2023/04/27 04:52:36;;;;;;;10.60;3.93;;;;;;;8.37;63.44;94728.97;5075423;28;20449;-83
2023/04/27 04:55:02;;;;;;;6.83;5.03;;;;;;;8.41;63.22;94732.19;5076171;28;20471;-84
2023/04/27 04:57:30;;;;;;;8.20;4.23;;;;;;;8.49;67.64;94740.25;5076883;28;20447;-84
2023/04/27 04:59:57;;;;;;;8.43;5.30;;;;;;;8.54;63.45;94738.09;5077434;28;20812;-83
2023/04/27 05:02:23;;;;;;;4.93;4.40;;;;;;;8.48;63.02;94732.53;5055709;28;20554;-81
2023/04/27 05:04:51;;;;;;;10.30;4.63;;;;;;;8.52;63.49;94747.84;5073701;28;20508;-83
2023/04/27 05:07:19;;;;;;;8.23;3.90;;;;;;;8.49;62.61;94745.47;5073885;28;20450;-83
2023/04/27 05:09:46;;;;;;;10.77;5.13;;;;;;;8.55;62.94;94755.44;5074017;28;20449;-82
2023/04/27 05:12:13;;;;;;;7.20;4.40;;;;;;;8.59;63.32;94749.03;5072100;28;20454;-83
2023/04/27 05:14:40;;;;;;;6.57;3.87;;;;;;;8.58;61.73;94755.22;5038863;28;20451;-82
2023/04/27 05:17:06;;;;;;;6.40;3.83;;;;;;;8.76;61.70;94759.94;5038714;28;20481;-83
2023/04/27 05:19:33;;;;;;;6.60;4.77;;;;;;;8.90;62.46;94754.41;5074760;28;20445;-83
2023/04/27 05:22:00;;;;;;;6.53;4.13;;;;;;;9.02;62.05;94758.69;5074355;28;20437;-83
2023/04/27 05:24:28;;;;;;;8.40;4.30;;;;;;;9.08;61.28;94757.34;5074234;28;20503;-83
2023/04/27 05:26:55;;;;;;;6.40;4.00;;;;;;;9.03;62.78;94765.59;5074106;28;20494;-83
2023/04/27 05:29:22;;;;;;;6.60;4.70;;;;;;;8.84;61.86;94768.00;5073715;28;20450;-83
2023/04/27 05:31:49;;;;;;;8.63;4.30;;;;;;;8.77;61.66;94764.22;5073350;28;20452;-83
2023/04/27 05:34:16;;;;;;;5.47;3.87;;;;;;;8.71;64.17;94767.34;5070841;28;20471;-83
2023/04/27 05:36:43;;;;;;;7.00;5.53;;;;;;;8.70;61.44;94761.25;5073849;28;20952;-83
2023/04/27 05:39:10;;;;;;;6.83;4.80;;;;;;;8.76;62.61;94763.38;5038428;28;20457;-83
2023/04/27 05:41:38;;;;;;;6.63;4.10;;;;;;;8.81;62.20;94770.88;5073115;28;20455;-83
2023/04/27 05:44:05;;;;;;;5.07;3.30;;;;;;;8.84;63.22;94773.22;5073270;28;20449;-85
2023/04/27 05:46:33;;;;;;;8.07;3.80;;;;;;;8.86;61.21;94774.78;5072819;28;20487;-82
2023/04/27 05:49:00;;;;;;;8.70;4.33;;;;;;;9.00;65.22;94753.56;5072302;28;20984;-82
2023/04/27 05:51:27;;;;;;;9.00;4.30;;;;;;;8.97;62.62;94763.47;5072647;28;20504;-82
2023/04/27 05:53:54;;;;;;;5.77;4.03;;;;;;;8.94;61.13;94777.59;5075698;28;20976;-82
2023/04/27 05:56:21;;;;;;;6.73;5.13;;;;;;;8.86;60.44;94774.78;5072419;28;20478;-82
2023/04/27 05:58:49;;;;;;;5.40;4.80;;;;;;;8.84;61.55;94768.00;5072138;28;20952;-81
2023/04/27 06:01:16;;;;;;;8.33;4.00;;;;;;;8.80;63.28;94769.19;5073148;28;20443;-81
2023/04/27 06:03:42;;;;;;;9.90;4.07;;;;;;;8.72;62.41;94772.44;5073300;28;20500;-82
2023/04/27 06:06:09;;;;;;;7.70;5.00;;;;;;;8.78;63.21;94768.50;5072683;28;20750;-83
2023/04/27 06:08:38;;;;;;;12.83;5.10;;;;;;;8.82;63.02;94770.75;5071952;28;20446;-82
2023/04/27 06:11:05;;;;;;;6.57;5.27;;;;;;;8.89;62.46;94782.38;5072179;28;20485;-82
2023/04/27 06:13:32;;;;;;;6.20;3.97;;;;;;;8.87;66.04;94771.19;5072175;28;20442;-82
2023/04/27 06:16:00;;;;;;;4.70;4.30;;;;;;;8.95;63.09;94773.19;5072174;28;20496;-82
2023/04/27 06:18:27;;;;;;;4.97;4.57;;;;;;;9.03;62.92;94780.44;5072199;28;20956;-82
2023/04/27 06:20:58;;;;;;;8.90;4.50;;;;;;;9.10;62.27;94774.59;5072012;28;20442;-81
2023/04/27 06:23:24;;;;;;;6.17;4.63;;;;;;;9.23;63.05;94771.78;5072423;28;20447;-82
2023/04/27 06:25:51;;;;;;;5.33;3.97;;;;;;;9.20;62.30;94767.66;5072487;28;20482;-82
2023/04/27 06:28:18;;;;;;;11.13;5.67;;;;;;;9.35;61.53;94769.97;5072289;28;20504;-83
2023/04/27 06:30:45;;;;;;;7.40;4.70;;;;;;;9.42;61.04;94776.38;5072546;28;20448;-82
2023/04/27 06:33:13;;;;;;;5.10;4.70;;;;;;;9.54;60.25;94775.34;5072095;28;20442;-80
2023/04/27 06:35:40;;;;;;;10.80;5.80;;;;;;;9.62;61.64;94773.78;5071728;28;20479;-83
2023/04/27 06:38:06;;;;;;;7.00;4.83;;;;;;;9.75;61.57;94770.97;5072565;28;20443;-83
2023/04/27 06:40:33;;;;;;;11.10;4.27;;;;;;;9.84;59.99;94770.22;5072404;28;20437;-83
2023/04/27 06:43:00;;;;;;;12.53;5.10;;;;;;;9.82;61.77;94774.72;5072557;28;20479;-82
2023/04/27 06:45:27;;;;;;;11.30;5.63;;;;;;;9.94;60.31;94776.34;5070194;28;20865;-82
2023/04/27 06:47:54;;;;;;;5.57;4.70;;;;;;;9.94;61.03;94771.09;5076112;28;20448;-82
2023/04/27 06:50:22;;;;;;;6.00;5.03;;;;;;;9.97;60.06;94767.38;5040661;28;20436;-83
2023/04/27 06:52:48;;;;;;;7.53;4.10;;;;;;;10.00;60.63;94766.28;5075864;28;20437;-83
2023/04/27 06:55:15;;;;;;;9.37;4.93;;;;;;;10.10;60.96;94777.66;5075497;28;21003;-82
2023/04/27 06:57:42;;;;;;;5.33;4.80;;;;;;;10.23;59.89;94759.97;5075900;28;20455;-83
2023/04/27 07:00:12;;;;;;;12.50;9.87;;;;;;;10.38;59.43;94765.66;5075566;28;20502;-83
2023/04/27 07:02:38;;;;;;;13.87;5.10;;;;;;;10.40;57.87;94764.56;5075535;28;20455;-83
2023/04/27 07:05:06;;;;;;;6.80;5.10;;;;;;;10.41;59.44;94768.88;5075311;28;20452;-82
2023/04/27 07:07:34;;;;;;;7.27;5.40;;;;;;;10.48;59.54;94764.75;5075902;28;20484;-83
2023/04/27 07:10:00;;;;;;;7.63;4.67;;;;;;;10.67;58.48;94766.59;5075493;28;20445;-82
2023/04/27 07:12:27;;;;;;;5.33;4.60;;;;;;;10.88;57.97;94768.31;5075606;28;20444;-82
2023/04/27 07:14:54;;;;;;;7.17;4.97;;;;;;;11.35;58.21;94772.00;5075506;28;20440;-83
2023/04/27 07:17:21;;;;;;;4.93;4.30;;;;;;;11.82;55.43;94770.31;5075035;28;20534;-83
2023/04/27 07:19:48;;;;;;;15.60;4.80;;;;;;;12.23;53.45;94766.50;5073005;28;20449;-82
2023/04/27 07:22:15;;;;;;;6.73;4.83;;;;;;;12.66;54.19;94770.34;5039741;28;20444;-83
2023/04/27 07:24:43;;;;;;;8.60;6.20;;;;;;;12.91;53.82;94761.78;5075442;28;20479;-82
2023/04/27 07:27:10;;;;;;;7.70;5.90;;;;;;;12.95;51.84;94771.03;5075274;28;20485;-83
2023/04/27 07:29:36;;;;;;;9.10;5.67;;;;;;;12.75;51.63;94758.13;5074886;28;20531;-83
2023/04/27 07:32:06;;;;;;;9.83;5.40;;;;;;;12.60;52.19;94757.78;5074977;28;20503;-83
2023/04/27 07:34:32;;;;;;;8.73;5.70;;;;;;;12.53;52.92;94759.34;5074693;28;20480;-83
2023/04/27 07:36:59;;;;;;;5.93;4.73;;;;;;;12.60;52.08;94765.69;5075242;28;20453;-83
2023/04/27 07:39:26;;;;;;;12.73;5.77;;;;;;;12.75;52.91;94763.41;5074763;28;20445;-83
2023/04/27 07:41:55;;;;;;;8.73;4.43;;;;;;;12.82;51.66;94761.84;5074515;28;20529;-82
2023/04/27 07:44:22;;;;;;;9.40;6.10;;;;;;;12.94;50.99;94763.28;5074800;28;20447;-83
2023/04/27 07:46:49;;;;;;;10.37;5.10;;;;;;;13.33;50.65;94758.63;5074688;28;20973;-83
2023/04/27 07:49:15;;;;;;;8.20;5.53;;;;;;;13.42;49.31;94768.28;5075078;28;20449;-83
2023/04/27 07:51:42;;;;;;;7.37;5.00;;;;;;;13.59;48.07;94759.53;5075675;28;20454;-83
2023/04/27 07:54:10;;;;;;;6.33;4.97;;;;;;;13.78;50.24;94757.69;5074847;28;20466;-83
2023/04/27 07:56:36;;;;;;;11.20;6.30;;;;;;;13.87;49.87;94757.59;5075142;28;20451;-82
2023/04/27 07:59:04;;;;;;;10.30;5.40;;;;;;;13.94;47.49;94752.56;5073863;28;20447;-83
2023/04/27 08:01:31;;;;;;;13.13;6.10;;;;;;;14.18;48.59;94749.28;5074841;28;20448;-83
2023/04/27 08:03:58;;;;;;;8.70;5.70;;;;;;;14.17;46.49;94750.25;5078764;28;20451;-84
2023/04/27 08:06:27;;;;;;;7.17;5.00;;;;;;;14.31;46.20;94756.75;5076775;28;20487;-84
2023/04/27 08:08:57;;;;;;;5.13;4.40;;;;;;;14.48;46.18;94740.91;5074497;28;20461;-84
2023/04/27 08:11:23;;;;;;;6.53;4.47;;;;;;;14.58;46.66;94748.69;5074498;28;20437;-84
2023/04/27 08:13:50;;;;;;;13.97;4.53;;;;;;;14.62;45.16;94746.56;5074553;28;20449;-84
2023/04/27 08:16:18;;;;;;;7.17;5.03;;;;;;;14.53;45.50;94750.97;5072375;28;20451;-84
2023/04/27 08:18:45;;;;;;;9.80;6.90;;;;;;;14.42;45.74;94756.47;5074211;28;20452;-84
2023/04/27 08:21:12;;;;;;;9.63;5.13;;;;;;;14.25;45.61;94747.66;5073997;28;20465;-84
2023/04/27 08:23:39;;;;;;;7.60;6.63;;;;;;;14.01;45.95;94747.50;5074342;28;20454;-84
2023/04/27 08:26:05;;;;;;;10.23;5.63;;;;;;;13.91;46.09;94751.06;5038964;28;20499;-83
2023/04/27 08:28:32;;;;;;;10.50;7.03;;;;;;;13.97;46.38;94751.44;5074341;28;20444;-84
2023/04/27 08:30:59;;;;;;;5.23;4.83;;;;;;;13.81;45.77;94752.13;5074248;28;20447;-84
2023/04/27 08:33:27;;;;;;;6.90;4.40;;;;;;;13.64;46.67;94744.09;5075140;28;20451;-85
2023/04/27 08:35:54;;;;;;;15.20;4.60;;;;;;;13.62;46.64;94751.34;5074712;28;20445;-84
2023/04/27 08:38:21;;;;;;;14.77;5.37;;;;;;;13.68;47.82;94749.06;5074938;28;20476;-84
2023/04/27 08:40:48;;;;;;;11.30;5.60;;;;;;;13.58;47.63;94751.75;5075155;28;20452;-84
2023/04/27 08:43:14;;;;;;;7.53;4.30;;;;;;;13.49;47.34;94742.97;5073705;28;20478;-84
2023/04/27 08:45:48;;;;;;;7.20;4.57;;;;;;;13.47;48.82;94744.09;5073767;28;20447;-84
2023/04/27 08:48:15;;;;;;;6.90;4.03;;;;;;;13.54;48.89;94751.25;5038555;28;21339;-84
2023/04/27 08:50:44;;;;;;;5.70;4.77;;;;;;;13.63;48.54;94755.63;5073391;28;20464;-84
2023/04/27 08:53:17;;;;;;;9.53;4.23;;;;;;;13.67;48.16;94752.69;5073316;28;20442;-84
2023/04/27 08:55:44;;;;;;;5.33;4.83;;;;;;;13.63;47.88;94747.72;5073952;28;20452;-84
2023/04/27 08:58:11;;;;;;;6.60;5.13;;;;;;;13.75;48.54;94753.56;5073530;28;20452;-83
2023/04/27 09:00:40;;;;;;;5.97;4.23;;;;;;;13.85;48.12;94743.75;5074005;28;20448;-83
2023/04/27 09:03:07;;;;;;;5.67;4.97;;;;;;;13.86;47.94;94752.47;5073607;28;20492;-84
2023/04/27 09:05:34;;;;;;;4.67;3.77;;;;;;;13.82;47.30;94748.50;5073872;28;20447;-84
2023/04/27 09:08:06;;;;;;;19.87;4.20;;;;;;;13.90;48.48;94745.94;5074445;28;20484;-83
2023/04/27 09:10:44;;;;;;;5.90;4.27;;;;;;;13.88;47.36;94737.38;5074510;28;20493;-84
2023/04/27 09:13:11;;;;;;;4.97;4.47;;;;;;;13.73;47.89;94744.16;5073647;28;20444;-83
2023/04/27 09:15:45;;;;;;;5.03;4.53;;;;;;;13.55;48.31;94742.34;5073501;28;20451;-84
2023/04/27 09:18:17;;;;;;;10.10;5.20;;;;;;;13.62;49.03;94737.31;5073697;28;20444;-83
2023/04/27 09:20:45;;;;;;;9.90;7.57;;;;;;;13.68;48.57;94741.16;5073248;28;20446;-84
2023/04/27 09:23:26;;;;;;;9.03;4.13;;;;;;;13.73;47.42;94739.69;5073379;28;20865;-84
2023/04/27 09:25:53;;;;;;;18.60;9.90;;;;;;;13.75;46.94;94736.91;5072715;28;20468;-84
2023/04/27 09:28:21;;;;;;;9.10;5.73;;;;;;;14.05;47.29;94739.13;5073110;28;20533;-83
2023/04/27 09:30:59;;;;;;;6.83;4.40;;;;;;;14.52;46.53;94725.56;5037271;28;20534;-84
2023/04/27 09:33:27;;;;;;;13.17;4.43;;;;;;;14.94;45.09;94730.84;5072612;28;20441;-84
2023/04/27 09:35:55;;;;;;;6.20;4.60;;;;;;;15.09;44.19;94721.31;5070697;28;20452;-83
2023/04/27 09:38:24;;;;;;;4.57;4.17;;;;;;;15.16;43.30;94718.84;5072743;28;20453;-85
2023/04/27 09:40:53;;;;;;;5.30;3.30;;;;;;;14.83;42.87;94707.38;5072623;28;20445;-84
2023/04/27 09:43:20;;;;;;;9.57;3.73;;;;;;;14.72;43.22;94703.19;5072408;28;20846;-84
2023/04/27 09:45:48;;;;;;;6.23;4.40;;;;;;;14.73;44.53;94711.94;5072574;28;20847;-84
2023/04/27 09:48:15;;;;;;;7.87;4.20;;;;;;;14.76;44.52;94707.19;5072517;28;20482;-84
2023/04/27 09:50:44;;;;;;;6.33;4.10;;;;;;;14.56;44.07;94700.50;5072831;28;20449;-84
2023/04/27 09:53:13;;;;;;;8.80;4.43;;;;;;;14.46;44.15;94700.63;5072581;28;20503;-84
2023/04/27 09:55:46;;;;;;;4.13;3.73;;;;;;;14.45;46.35;94704.22;5072559;28;20532;-83
2023/04/27 09:58:39;;;;;;;4.03;3.53;;;;;;;14.56;43.78;94695.22;5072481;28;20455;-83
2023/04/27 10:01:12;;;;;;;4.53;3.70;;;;;;;14.60;45.50;94695.72;5072594;28;20453;-84
2023/04/27 10:03:49;;;;;;;6.53;3.97;;;;;;;14.82;44.75;94703.06;5072656;28;20447;-83
2023/04/27 10:06:43;;;;;;;7.67;4.13;;;;;;;14.95;43.89;94697.31;5037032;28;20458;-85
2023/04/27 10:09:10;;;;;;;6.73;4.50;;;;;;;15.05;44.24;94696.19;5070772;28;20446;-84
2023/04/27 10:11:43;;;;;;;4.50;3.90;;;;;;;14.88;42.49;94689.22;5072562;28;20774;-84
2023/04/27 10:14:16;;;;;;;5.43;3.93;;;;;;;14.92;43.93;94703.75;5072330;28;20504;-84
2023/04/27 10:16:47;;;;;;;4.63;4.20;;;;;;;14.98;43.41;94686.41;5072491;28;20919;-84
2023/04/27 10:19:14;;;;;;;9.60;3.93;;;;;;;14.93;43.60;94686.91;5072226;28;20440;-84
2023/04/27 10:21:52;;;;;;;5.60;3.87;;;;;;;14.62;42.38;94689.28;5074550;28;20441;-83
2023/04/27 10:24:19;;;;;;;9.13;3.77;;;;;;;14.51;43.32;94693.06;5076222;28;20446;-84
2023/04/27 10:26:48;;;;;;;7.30;3.60;;;;;;;14.47;42.99;94685.63;5076212;28;20996;-84
2023/04/27 10:29:17;;;;;;;6.20;3.10;;;;;;;14.46;42.95;94689.25;5076241;28;20937;-83
2023/04/27 10:31:45;;;;;;;5.20;3.50;;;;;;;14.40;43.25;94695.09;5076714;28;20481;-83
2023/04/27 10:34:17;;;;;;;11.20;3.93;;;;;;;14.26;44.14;94691.25;5076107;28;20534;-84
2023/04/27 10:36:44;;;;;;;3.67;3.37;;;;;;;14.18;45.01;94689.41;5076164;28;20502;-84
2023/04/27 10:39:16;;;;;;;3.90;3.50;;;;;;;14.09;43.45;94684.22;5076034;28;20478;-84
2023/04/27 10:41:51;;;;;;;5.00;3.77;;;;;;;14.03;44.25;94688.31;5075765;28;20961;-84
2023/04/27 10:44:19;;;;;;;11.90;4.00;;;;;;;14.23;43.45;94689.75;5076389;28;20971;-84
2023/04/27 10:46:53;;;;;;;4.77;4.00;;;;;;;14.37;44.42;94685.69;5076744;28;20504;-84
2023/04/27 10:49:20;;;;;;;7.07;3.87;;;;;;;14.35;44.84;94692.09;5077325;28;20519;-85
2023/04/27 10:51:47;;;;;;;7.90;3.77;;;;;;;14.41;43.54;94691.47;5076943;28;20453;-85
2023/04/27 10:54:14;;;;;;;4.00;3.60;;;;;;;14.44;42.67;94684.09;5041828;28;20504;-84
2023/04/27 10:56:41;;;;;;;7.43;3.60;;;;;;;14.47;42.79;94686.44;5076872;28;20441;-84
2023/04/27 10:59:10;;;;;;;5.10;3.53;;;;;;;14.48;42.56;94687.25;5076968;28;20438;-83
2023/04/27 11:01:37;;;;;;;5.03;4.50;;;;;;;14.41;42.53;94692.28;5076939;28;20448;-85
2023/04/27 11:04:04;;;;;;;7.40;4.00;;;;;;;14.25;41.69;94674.59;5076763;28;20497;-85
2023/04/27 11:06:33;;;;;;;9.67;5.13;;;;;;;14.13;42.62;94673.19;5077564;28;20449;-85
2023/04/27 11:09:00;;;;;;;11.63;3.63;;;;;;;13.92;42.48;94675.41;5042505;28;20515;-84
2023/04/27 11:11:26;;;;;;;11.30;4.50;;;;;;;13.84;43.75;94676.16;5077348;28;20488;-83
2023/04/27 11:13:54;;;;;;;5.00;4.20;;;;;;;13.82;42.72;94677.28;5077200;28;20432;-86
2023/04/27 11:16:26;;;;;;;8.37;4.90;;;;;;;13.90;43.38;94672.91;5076582;28;20460;-85
2023/04/27 11:18:52;;;;;;;7.70;3.80;;;;;;;14.07;43.03;94678.28;5077029;28;20522;-87
2023/04/27 11:21:20;;;;;;;4.47;3.97;;;;;;;14.11;43.03;94669.88;5076536;28;20448;-85
2023/04/27 11:23:47;;;;;;;3.90;3.55;;;;;;;14.13;42.36;94673.19;5077186;28;20474;-85
2023/04/27 11:26:16;;;;;;;4.87;3.57;;;;;;;14.10;41.67;94684.06;5075046;28;20194;-84
2023/04/27 11:28:43;;;;;;;6.80;3.67;;;;;;;14.02;42.29;94681.38;5075967;28;20486;-84
2023/04/27 11:31:11;;;;;;;5.20;4.00;;;;;;;13.90;42.13;94685.28;5040804;28;20467;-81
2023/04/27 11:33:39;;;;;;;6.93;4.00;;;;;;;13.85;42.58;94692.81;5074410;28;20451;-85
2023/04/27 11:36:16;;;;;;;5.27;4.03;;;;;;;13.90;43.00;94687.91;5076367;28;20422;-86
2023/04/27 11:38:43;;;;;;;5.73;3.40;;;;;;;13.90;41.01;94687.91;5076340;28;20492;-85